Time;durP1;ratioP1;P1;durP2;ratioP2;P2;SDS_P1;SDS_P2;PMS_P1;PMS_P2;Temp;Humidity;BMP_temperature;BMP_pressure;BME280_temperature;BME280_humidity;BME280_pressure;Samples;Min_cycle;Max_cycle;Signal;HPM_P1;HPM_P2
2022/07/27 00:02:10;;;;;;;8.60;6.15;;;;;;;26.08;47.96;99449.09;5027745;28;20029;-29
2022/07/27 00:04:35;;;;;;;9.82;6.43;;;;;;;26.29;47.05;99446.28;5027469;28;20039;-27
2022/07/27 00:07:01;;;;;;;8.35;6.00;;;;;;;26.12;47.13;99452.75;5027695;28;20025;-29
2022/07/27 00:09:26;;;;;;;8.57;5.63;;;;;;;26.24;46.74;99450.03;5027630;28;20067;-30
2022/07/27 00:11:52;;;;;;;9.38;5.93;;;;;;;26.09;47.00;99447.94;5026235;28;20262;-28
2022/07/27 00:14:17;;;;;;;8.43;5.82;;;;;;;26.30;47.31;99445.94;5026137;28;20022;-28
2022/07/27 00:16:43;;;;;;;9.93;5.72;;;;;;;26.16;47.61;99448.22;5027405;28;20048;-27
2022/07/27 00:19:08;;;;;;;7.30;6.10;;;;;;;26.30;47.58;99459.63;5027470;28;20029;-27
2022/07/27 00:21:33;;;;;;;9.98;5.95;;;;;;;26.25;47.53;99446.16;5025956;28;20044;-27
2022/07/27 00:23:59;;;;;;;7.70;5.97;;;;;;;26.50;46.59;99463.41;5027893;28;20117;-27
2022/07/27 00:26:24;;;;;;;7.30;5.72;;;;;;;26.18;46.92;99467.78;5027650;28;20813;-30
2022/07/27 00:28:50;;;;;;;8.38;5.85;;;;;;;26.18;47.49;99462.34;5027358;28;20021;-27
2022/07/27 00:31:16;;;;;;;8.60;5.78;;;;;;;26.04;47.37;99466.16;5027655;28;20470;-29
2022/07/27 00:33:42;;;;;;;8.40;6.05;;;;;;;25.92;47.64;99448.94;5025500;28;20116;-30
2022/07/27 00:36:07;;;;;;;8.40;6.13;;;;;;;26.03;47.95;99467.31;5027485;28;20104;-27
2022/07/27 00:38:33;;;;;;;9.15;6.47;;;;;;;25.68;48.25;99453.13;5027385;28;20057;-28
2022/07/27 00:40:58;;;;;;;9.23;5.95;;;;;;;25.26;49.72;99467.59;5027308;28;20032;-30
2022/07/27 00:43:24;;;;;;;8.75;6.30;;;;;;;25.49;49.68;99464.53;5027335;28;20033;-29
2022/07/27 00:45:49;;;;;;;8.65;6.03;;;;;;;25.93;48.62;99462.25;5026963;28;20037;-28
2022/07/27 00:48:15;;;;;;;8.18;5.70;;;;;;;25.98;48.16;99458.50;5025557;28;20030;-30
2022/07/27 00:50:42;;;;;;;8.68;6.00;;;;;;;26.00;47.81;99462.50;5027101;28;20565;-28
2022/07/27 00:53:09;;;;;;;9.70;6.13;;;;;;;25.86;48.72;99472.91;5025783;28;20493;-28
2022/07/27 00:55:35;;;;;;;9.35;6.32;;;;;;;25.41;49.15;99463.47;5025338;28;20468;-30
2022/07/27 00:58:04;;;;;;;10.07;6.55;;;;;;;25.70;49.67;99474.66;5026973;28;20037;-32
2022/07/27 01:00:30;;;;;;;8.93;5.43;;;;;;;25.68;49.66;99474.97;5026835;28;20972;-27
2022/07/27 01:02:56;;;;;;;9.30;6.78;;;;;;;25.56;49.88;99489.38;5024312;28;20033;-28
2022/07/27 01:05:21;;;;;;;11.25;6.65;;;;;;;26.10;48.77;99490.53;5026922;28;20068;-30
2022/07/27 01:07:48;;;;;;;7.97;6.22;;;;;;;26.23;48.82;99492.16;5025683;28;20049;-29
2022/07/27 01:10:13;;;;;;;11.45;6.68;;;;;;;25.91;48.17;99480.09;5027113;28;20110;-28
2022/07/27 01:12:39;;;;;;;9.00;6.07;;;;;;;25.43;49.81;99482.25;5025456;28;20399;-27
2022/07/27 01:15:05;;;;;;;11.45;6.35;;;;;;;25.47;50.81;99494.09;5025328;28;20037;-29
2022/07/27 01:17:32;;;;;;;9.02;6.47;;;;;;;25.37;50.57;99480.84;5026625;28;20424;-29
2022/07/27 01:19:58;;;;;;;10.38;6.88;;;;;;;25.05;51.01;99491.31;5025770;28;20026;-27
2022/07/27 01:22:23;;;;;;;9.88;6.90;;;;;;;25.08;50.82;99493.34;5009035;28;20075;-28
2022/07/27 01:24:49;;;;;;;9.35;6.80;;;;;;;24.75;51.90;99495.94;5026827;28;20028;-28
2022/07/27 01:27:15;;;;;;;8.27;6.70;;;;;;;24.69;52.05;99498.03;5025346;28;20036;-27
2022/07/27 01:29:41;;;;;;;11.43;7.03;;;;;;;24.53;52.82;99499.72;5025114;28;20028;-29
2022/07/27 01:32:07;;;;;;;10.38;7.22;;;;;;;24.20;52.99;99476.53;5026510;28;20037;-30
2022/07/27 01:34:33;;;;;;;8.70;7.20;;;;;;;23.97;54.72;99481.38;5026864;28;20535;-28
2022/07/27 01:37:03;;;;;;;10.07;7.82;;;;;;;24.05;53.98;99482.50;5025351;28;20041;-27
2022/07/27 01:39:29;;;;;;;10.50;7.78;;;;;;;23.98;54.13;99480.25;5025097;28;20091;-30
2022/07/27 01:41:54;;;;;;;10.63;7.43;;;;;;;23.97;54.19;99480.59;5025344;28;20030;-29
2022/07/27 01:44:20;;;;;;;12.82;8.20;;;;;;;23.84;54.70;99483.16;5026515;28;20037;-28
2022/07/27 01:46:45;;;;;;;10.40;6.97;;;;;;;23.72;55.49;99476.72;5026549;28;20032;-28
2022/07/27 01:49:11;;;;;;;13.82;7.85;;;;;;;23.79;55.20;99487.97;5026511;28;20028;-27
2022/07/27 01:51:36;;;;;;;13.18;7.85;;;;;;;23.47;55.49;99469.03;5026541;28;20021;-35
2022/07/27 01:54:02;;;;;;;9.75;7.43;;;;;;;23.68;55.67;99482.03;5025454;28;20032;-28
2022/07/27 01:56:27;;;;;;;12.40;7.88;;;;;;;23.76;54.96;99483.13;5025067;28;20044;-29
2022/07/27 01:58:54;;;;;;;12.30;8.13;;;;;;;24.04;54.00;99489.84;5026630;28;20114;-28
2022/07/27 02:01:19;;;;;;;9.93;7.30;;;;;;;23.80;55.10;99484.94;5024561;28;20497;-29
2022/07/27 02:03:45;;;;;;;11.80;7.50;;;;;;;23.47;56.45;99477.19;5026747;28;20021;-27
2022/07/27 02:06:10;;;;;;;11.63;7.88;;;;;;;23.92;54.84;99486.97;5026663;28;20103;-29
2022/07/27 02:08:35;;;;;;;12.88;7.60;;;;;;;23.76;54.48;99491.28;5026486;28;20085;-27
2022/07/27 02:13:48;;;;;;;10.10;7.43;;;;;;;23.67;55.00;99483.94;5027792;28;20777;-28
2022/07/27 02:16:14;;;;;;;;;;;;;;;23.54;55.03;99486.78;5028799;28;20053;-30
2022/07/27 02:18:39;;;;;;;10.75;7.03;;;;;;;23.61;54.90;99490.66;5030220;28;20024;-27
2022/07/27 02:21:05;;;;;;;12.82;7.57;;;;;;;23.47;55.58;99487.28;5030201;28;20382;-27
2022/07/27 02:23:31;;;;;;;11.52;7.40;;;;;;;23.60;55.90;99496.41;5029555;28;20477;-27
2022/07/27 02:25:57;;;;;;;11.45;8.10;;;;;;;23.51;55.90;99488.25;5029560;28;20468;-30
2022/07/27 02:28:22;;;;;;;13.10;8.50;;;;;;;23.35;56.11;99487.13;5029532;28;20667;-27
2022/07/27 02:30:47;;;;;;;16.33;8.70;;;;;;;23.13;56.40;99472.53;5028471;28;20029;-27
2022/07/27 02:33:13;;;;;;;13.00;8.93;;;;;;;23.41;56.56;99481.19;5029693;28;20041;-27
2022/07/27 02:35:39;;;;;;;9.60;7.97;;;;;;;23.28;56.79;99479.44;5028157;28;20568;-27
2022/07/27 02:38:04;;;;;;;12.88;8.05;;;;;;;23.47;56.31;99498.16;5029598;28;20052;-28
2022/07/27 02:40:30;;;;;;;11.13;7.43;;;;;;;23.42;56.70;99503.78;5029859;28;20032;-28
2022/07/27 02:42:55;;;;;;;17.73;9.68;;;;;;;22.94;58.57;99475.47;5029496;28;20033;-29
2022/07/27 02:45:21;;;;;;;10.27;7.95;;;;;;;22.80;59.03;99472.06;5029284;28;20021;-28
2022/07/27 02:47:46;;;;;;;12.32;8.35;;;;;;;;;;5029198;28;20060;-29
2022/07/27 02:50:12;;;;;;;12.57;8.73;;;;;;;22.98;58.53;99491.97;5027770;28;20095;-28
2022/07/27 02:52:38;;;;;;;14.65;9.43;;;;;;;22.97;58.26;99503.97;5027799;28;20844;-27
2022/07/27 02:55:04;;;;;;;12.85;8.40;;;;;;;23.00;58.06;99487.00;5028994;28;20116;-31
2022/07/27 02:57:33;;;;;;;11.57;8.02;;;;;;;23.03;58.20;99483.72;5027213;28;20029;-29
2022/07/27 02:59:59;;;;;;;12.85;7.75;;;;;;;23.35;56.81;99498.78;5027755;28;20064;-31
2022/07/27 03:02:25;;;;;;;14.07;8.75;;;;;;;23.38;57.22;99489.22;5027606;28;20032;-27
2022/07/27 03:04:50;;;;;;;11.15;8.52;;;;;;;23.06;58.48;99496.66;5027499;28;20037;-31
2022/07/27 03:07:16;;;;;;;12.20;9.00;;;;;;;22.93;58.61;99494.84;5028652;28;20026;-28
2022/07/27 03:09:41;;;;;;;13.25;8.90;;;;;;;23.05;58.40;99498.59;5028683;28;20033;-30
2022/07/27 03:12:07;;;;;;;11.05;7.78;;;;;;;22.67;59.63;99498.25;5028663;28;20018;-29
2022/07/27 03:14:32;;;;;;;11.32;8.55;;;;;;;22.87;58.31;99481.38;5028956;28;20030;-28
2022/07/27 03:16:58;;;;;;;13.93;9.15;;;;;;;22.76;58.97;99490.94;5027156;28;20050;-27
2022/07/27 03:19:23;;;;;;;14.13;8.75;;;;;;;22.63;59.50;99492.63;5028723;28;20037;-31
2022/07/27 03:21:48;;;;;;;15.85;9.15;;;;;;;23.01;58.06;99484.00;5028589;28;20036;-32
2022/07/27 03:24:14;;;;;;;11.70;9.38;;;;;;;23.20;57.99;99500.06;5028818;28;20033;-27
2022/07/27 03:26:39;;;;;;;17.52;9.15;;;;;;;22.86;58.76;99501.53;5027401;28;20029;-28
2022/07/27 03:29:05;;;;;;;16.50;9.20;;;;;;;22.63;59.63;99508.16;5028526;28;20043;-27
2022/07/27 03:31:30;;;;;;;11.77;8.35;;;;;;;22.38;60.35;99496.84;5028349;28;20033;-27
2022/07/27 03:33:56;;;;;;;12.30;8.13;;;;;;;22.82;59.10;99507.91;5028372;28;20044;-28
2022/07/27 03:36:21;;;;;;;17.10;9.50;;;;;;;22.84;58.12;99498.34;5028428;28;20028;-27
2022/07/27 03:38:47;;;;;;;17.73;9.02;;;;;;;22.87;58.32;99508.56;5026924;28;20026;-27
2022/07/27 03:41:12;;;;;;;20.00;9.20;;;;;;;22.46;59.46;99500.72;5027908;28;20667;-29
2022/07/27 03:43:38;;;;;;;13.40;8.40;;;;;;;22.74;58.26;99504.06;5028035;28;20613;-31
2022/07/27 03:46:03;;;;;;;12.30;8.10;;;;;;;22.59;59.02;99518.03;5028133;28;20473;-28
2022/07/27 03:48:29;;;;;;;14.52;8.27;;;;;;;22.30;58.99;99511.19;5028188;28;20107;-32
2022/07/27 03:50:54;;;;;;;16.27;9.15;;;;;;;22.21;59.62;99508.38;5026542;28;20033;-27
2022/07/27 03:53:20;;;;;;;11.00;8.25;;;;;;;22.35;60.05;99505.63;5027797;28;20820;-32
2022/07/27 03:55:49;;;;;;;17.83;9.02;;;;;;;22.45;60.32;99499.94;5027693;28;20025;-28
2022/07/27 03:58:15;;;;;;;16.08;9.25;;;;;;;22.53;61.08;99530.16;5026763;28;20033;-30
2022/07/27 04:00:41;;;;;;;13.27;9.20;;;;;;;22.52;61.59;99528.56;5027985;28;20021;-28
2022/07/27 04:03:07;;;;;;;14.10;9.88;;;;;;;22.39;61.72;99527.50;5026731;28;20053;-29
2022/07/27 04:05:32;;;;;;;18.15;10.10;;;;;;;22.37;61.26;99527.84;5027709;28;20076;-27
2022/07/27 04:07:58;;;;;;;14.00;9.65;;;;;;;22.64;61.54;99550.53;5027912;28;20493;-28
2022/07/27 04:10:24;;;;;;;12.80;9.05;;;;;;;22.64;60.69;99532.31;5027525;28;20036;-28
2022/07/27 04:12:49;;;;;;;15.82;9.73;;;;;;;22.93;60.71;99543.78;5027692;28;20033;-32
2022/07/27 04:15:15;;;;;;;13.15;9.23;;;;;;;22.86;60.97;99549.66;5026456;28;20119;-30
2022/07/27 04:17:40;;;;;;;19.70;10.10;;;;;;;23.04;60.17;99553.28;5027133;28;20064;-32
2022/07/27 04:20:07;;;;;;;12.60;9.30;;;;;;;23.55;58.40;99551.81;5027547;28;20021;-29
2022/07/27 04:22:32;;;;;;;18.10;9.55;;;;;;;23.52;58.06;99560.63;5026245;28;20030;-28
2022/07/27 04:24:58;;;;;;;12.93;9.60;;;;;;;23.34;57.89;99537.22;5027686;28;20022;-27
2022/07/27 04:27:23;;;;;;;18.63;12.38;;;;;;;23.15;58.60;99537.47;5027475;28;20025;-27
2022/07/27 04:29:49;;;;;;;18.55;13.40;;;;;;;23.44;58.52;99547.81;5026303;28;20025;-27
2022/07/27 04:32:14;;;;;;;11.82;9.90;;;;;;;23.72;56.32;99558.38;5027723;28;20029;-29
2022/07/27 04:34:40;;;;;;;12.10;9.15;;;;;;;23.66;55.79;99550.38;5027488;28;20033;-28
2022/07/27 04:37:05;;;;;;;15.48;9.52;;;;;;;23.90;55.92;99570.13;5027380;28;20041;-30
2022/07/27 04:39:31;;;;;;;11.98;9.07;;;;;;;24.23;54.76;99557.63;5025636;28;20052;-30
2022/07/27 04:41:56;;;;;;;12.60;9.05;;;;;;;23.89;55.12;99553.00;5027715;28;20483;-32
2022/07/27 04:44:21;;;;;;;11.45;9.27;;;;;;;24.02;55.70;99554.75;5027353;28;20105;-30
2022/07/27 04:46:47;;;;;;;11.63;8.60;;;;;;;24.22;54.09;99563.41;5025936;28;20119;-30
2022/07/27 04:49:13;;;;;;;15.55;10.13;;;;;;;24.19;53.90;99580.38;5027267;28;20671;-28
2022/07/27 04:51:42;;;;;;;12.10;8.82;;;;;;;24.17;54.06;99586.16;5026974;28;20036;-27
2022/07/27 04:54:07;;;;;;;11.25;9.07;;;;;;;24.23;54.90;99590.31;5026961;28;20037;-30
2022/07/27 04:56:33;;;;;;;11.75;8.82;;;;;;;24.35;55.30;99575.22;5027500;28;20033;-28
2022/07/27 04:58:58;;;;;;;10.93;8.10;;;;;;;24.36;54.03;99571.41;5009541;28;20026;-27
2022/07/27 05:01:24;;;;;;;11.23;8.10;;;;;;;24.23;55.18;99562.25;5026914;28;20468;-27
2022/07/27 05:03:50;;;;;;;12.63;8.82;;;;;;;24.31;55.16;99572.34;5027097;28;20409;-27
2022/07/27 05:06:16;;;;;;;10.98;8.10;;;;;;;24.47;55.48;99589.78;5025277;28;20030;-29
2022/07/27 05:08:41;;;;;;;12.30;8.32;;;;;;;24.64;54.18;99590.91;5026827;28;20049;-28
2022/07/27 05:11:07;;;;;;;11.93;8.05;;;;;;;24.60;52.66;99592.69;5027018;28;20532;-29
2022/07/27 05:13:34;;;;;;;13.23;8.15;;;;;;;24.84;51.80;99592.94;5026525;28;20034;-32
2022/07/27 05:16:00;;;;;;;16.00;8.98;;;;;;;24.89;52.48;99588.44;5009128;28;20049;-31
2022/07/27 05:18:25;;;;;;;13.05;8.77;;;;;;;25.20;51.36;99593.63;5026909;28;20032;-28
2022/07/27 05:20:51;;;;;;;10.55;8.70;;;;;;;25.11;52.55;99574.56;5026997;28;20034;-29
2022/07/27 05:23:17;;;;;;;12.65;9.02;;;;;;;25.12;51.39;99592.53;5008716;28;20706;-37
2022/07/27 05:25:42;;;;;;;12.95;8.07;;;;;;;25.33;50.46;99602.72;5027005;28;20034;-30
2022/07/27 05:28:10;;;;;;;12.27;8.35;;;;;;;25.33;50.96;99594.53;5026825;28;20033;-28
2022/07/27 05:30:36;;;;;;;13.38;8.38;;;;;;;25.65;50.30;99593.88;5025486;28;20064;-28
2022/07/27 05:33:01;;;;;;;14.98;7.93;;;;;;;25.78;50.55;99591.22;5026898;28;20029;-32
2022/07/27 05:35:27;;;;;;;9.85;8.20;;;;;;;25.72;50.67;99598.78;5026459;28;20029;-28
2022/07/27 05:37:52;;;;;;;13.25;9.07;;;;;;;25.69;50.55;99604.13;5026504;28;20033;-33
2022/07/27 05:40:17;;;;;;;11.50;9.00;;;;;;;25.87;50.62;99605.63;5025157;28;20029;-29
2022/07/27 05:42:43;;;;;;;13.07;8.23;;;;;;;26.18;50.21;99605.22;5026637;28;20568;-27
2022/07/27 05:45:10;;;;;;;12.18;8.80;;;;;;;26.17;49.19;99592.69;5026490;28;20021;-32
2022/07/27 05:47:35;;;;;;;9.73;8.13;;;;;;;26.26;48.87;99589.91;5024975;28;20032;-31
2022/07/27 05:50:01;;;;;;;12.65;7.72;;;;;;;26.32;48.68;99604.94;5029510;28;20033;-29
2022/07/27 05:52:26;;;;;;;12.65;8.05;;;;;;;26.21;46.86;99598.28;5030360;28;20586;-30
2022/07/27 05:54:52;;;;;;;11.70;8.25;;;;;;;26.12;47.38;99605.78;5030450;28;20061;-31
2022/07/27 05:57:17;;;;;;;13.60;7.85;;;;;;;26.19;47.30;99589.63;5030150;28;20868;-34
2022/07/27 05:59:42;;;;;;;9.55;7.55;;;;;;;26.63;47.80;99606.44;5030221;28;20053;-32
2022/07/27 06:02:08;;;;;;;10.55;7.85;;;;;;;26.89;45.93;99603.44;5030080;28;20036;-29
2022/07/27 06:04:34;;;;;;;12.07;7.80;;;;;;;26.91;46.38;99598.44;5030265;28;20044;-29
2022/07/27 06:09:43;;;;;;;11.30;7.95;;;;;;;27.00;47.88;99601.84;5030497;28;20527;-31
2022/07/27 06:12:09;;;;;;;9.82;7.57;;;;;;;26.85;46.95;99584.16;5030163;28;20026;-28
2022/07/27 06:14:34;;;;;;;15.68;7.78;;;;;;;27.21;48.52;99600.94;5030123;28;20036;-28
2022/07/27 06:17:00;;;;;;;11.73;8.48;;;;;;;27.35;47.05;99592.41;5029621;28;20049;-28
2022/07/27 06:19:25;;;;;;;14.60;8.43;;;;;;;27.44;46.15;99607.59;5029548;28;20022;-30
2022/07/27 06:21:51;;;;;;;14.88;9.18;;;;;;;27.47;46.21;99603.38;5030040;28;20048;-28
2022/07/27 06:24:16;;;;;;;15.02;9.52;;;;;;;27.67;46.76;99600.84;5029800;28;20025;-36
2022/07/27 06:26:42;;;;;;;10.60;8.60;;;;;;;27.57;46.01;99583.72;5029653;28;20064;-28
2022/07/27 06:29:08;;;;;;;13.35;9.10;;;;;;;27.77;47.16;99605.84;5028320;28;20037;-29
2022/07/27 06:31:33;;;;;;;11.85;10.63;;;;;;;27.92;45.22;99607.88;5029377;28;20037;-29
2022/07/27 06:33:58;;;;;;;12.73;10.48;;;;;;;27.94;44.91;99600.09;5029221;28;20063;-32
2022/07/27 06:36:24;;;;;;;12.68;10.60;;;;;;;27.83;43.70;99599.78;5027783;28;20045;-30
2022/07/27 06:38:50;;;;;;;14.82;11.02;;;;;;;27.61;45.29;99586.56;5044681;28;20145;-28
2022/07/27 06:41:15;;;;;;;14.38;10.43;;;;;;;27.52;45.77;99581.22;5029616;28;20041;-29
2022/07/27 06:43:41;;;;;;;12.85;11.40;;;;;;;27.93;45.48;99598.53;5029118;28;20022;-29
2022/07/27 06:46:11;;;;;;;14.55;10.57;;;;;;;28.02;45.34;99598.38;5029577;28;20183;-30
2022/07/27 06:48:37;;;;;;;12.23;10.70;;;;;;;27.87;45.71;99590.88;5027877;28;20401;-32
2022/07/27 06:51:02;;;;;;;15.38;11.40;;;;;;;28.00;45.63;99595.97;5029441;28;20543;-27
2022/07/27 06:53:28;;;;;;;16.63;11.20;;;;;;;28.01;44.65;99583.88;5029230;28;20032;-28
2022/07/27 06:55:53;;;;;;;13.52;10.95;;;;;;;28.14;45.04;99581.09;5029228;28;20488;-34
2022/07/27 06:58:19;;;;;;;13.57;10.82;;;;;;;28.40;44.86;99595.16;5029209;28;20558;-28
2022/07/27 07:00:45;;;;;;;14.15;10.93;;;;;;;28.55;43.36;99590.06;5028966;28;20037;-32
2022/07/27 07:03:10;;;;;;;14.68;10.73;;;;;;;28.58;43.95;99597.59;5027616;28;20523;-29
2022/07/27 07:05:44;;;;;;;14.10;10.85;;;;;;;28.53;44.67;99592.38;5028761;28;20108;-28
2022/07/27 07:08:10;;;;;;;14.35;10.35;;;;;;;28.57;45.88;99571.31;5027501;28;20039;-29
2022/07/27 07:10:38;;;;;;;13.20;10.15;;;;;;;28.51;44.88;99583.69;5028899;28;20025;-28
2022/07/27 07:13:05;;;;;;;;;;;;;;;28.42;44.75;99573.66;5029292;28;20029;-31
2022/07/27 07:15:31;;;;;;;13.57;11.35;;;;;;;28.68;44.87;99577.88;5027222;28;19975;-30
2022/07/27 07:17:57;;;;;;;15.02;10.65;;;;;;;29.08;44.81;99573.38;5026994;28;20053;-29
2022/07/27 07:20:22;;;;;;;15.35;10.90;;;;;;;29.07;43.50;99569.81;5028871;28;20040;-27
2022/07/27 07:22:48;;;;;;;15.07;10.60;;;;;;;29.00;43.60;99562.19;5028566;28;20029;-29
2022/07/27 07:25:14;;;;;;;14.10;10.35;;;;;;;29.24;43.62;99574.97;5027171;28;20041;-28
2022/07/27 07:27:39;;;;;;;11.35;10.15;;;;;;;29.14;42.65;99572.78;5026473;28;20105;-34
2022/07/27 07:30:05;;;;;;;12.45;10.27;;;;;;;29.15;44.19;99562.56;5027058;28;20080;-28
2022/07/27 07:32:31;;;;;;;13.73;10.68;;;;;;;29.39;42.94;99567.06;5026970;28;20405;-30
2022/07/27 07:34:56;;;;;;;13.50;10.13;;;;;;;29.28;43.58;99555.84;5027303;28;20026;-28
2022/07/27 07:37:21;;;;;;;14.35;10.85;;;;;;;29.20;42.76;99565.06;5028459;28;20025;-28
2022/07/27 07:39:47;;;;;;;11.27;10.07;;;;;;;29.33;43.38;99563.00;5027110;28;20095;-27
2022/07/27 07:42:13;;;;;;;13.57;10.98;;;;;;;29.46;42.42;99550.72;5028458;28;20032;-27
2022/07/27 07:44:39;;;;;;;12.90;10.52;;;;;;;29.76;41.47;99541.97;5026812;28;20040;-29
2022/07/27 07:47:05;;;;;;;13.70;9.82;;;;;;;29.99;42.06;99573.06;5028053;28;20095;-32
2022/07/27 07:49:30;;;;;;;12.50;10.25;;;;;;;29.97;40.90;99555.34;5026628;28;20029;-32
2022/07/27 07:51:56;;;;;;;12.77;9.98;;;;;;;30.03;41.52;99562.94;5028290;28;20028;-29
2022/07/27 07:54:22;;;;;;;12.50;9.70;;;;;;;30.11;41.04;99563.09;5026855;28;20039;-30
2022/07/27 07:56:47;;;;;;;12.82;9.75;;;;;;;30.07;41.77;99579.53;5028124;28;20087;-29
2022/07/27 07:59:13;;;;;;;16.77;10.68;;;;;;;30.02;41.27;99558.63;5028027;28;20080;-30
2022/07/27 08:01:38;;;;;;;14.45;10.13;;;;;;;30.10;40.77;99554.06;5026273;28;20416;-29
2022/07/27 08:04:04;;;;;;;11.88;10.00;;;;;;;30.36;40.60;99560.84;5027823;28;20490;-30
2022/07/27 08:06:29;;;;;;;12.60;9.98;;;;;;;30.50;39.36;99565.81;5027828;28;20026;-32
2022/07/27 08:08:55;;;;;;;13.05;10.13;;;;;;;30.41;39.90;99566.84;5027905;28;20061;-29
2022/07/27 08:11:20;;;;;;;14.20;10.98;;;;;;;30.53;40.95;99556.84;5027271;28;20033;-29
2022/07/27 08:13:46;;;;;;;14.18;10.90;;;;;;;30.97;40.88;99565.47;5027808;28;20033;-28
2022/07/27 08:16:11;;;;;;;12.32;9.98;;;;;;;31.37;40.52;99568.84;5027534;28;20549;-30
2022/07/27 08:18:37;;;;;;;12.88;9.68;;;;;;;31.37;39.03;99566.09;5027915;28;20034;-28
2022/07/27 08:21:02;;;;;;;12.55;9.93;;;;;;;31.39;39.47;99548.00;5027930;28;20033;-29
2022/07/27 08:23:30;;;;;;;11.35;9.45;;;;;;;31.67;39.19;99551.56;5026066;28;20040;-29
2022/07/27 08:25:56;;;;;;;12.10;9.52;;;;;;;31.49;38.54;99559.56;5026122;28;20040;-29
2022/07/27 08:28:21;;;;;;;11.02;9.20;;;;;;;31.71;37.39;99564.22;5026204;28;20025;-33
2022/07/27 08:30:47;;;;;;;14.52;9.90;;;;;;;31.84;38.52;99556.50;5027323;28;20436;-32
2022/07/27 08:33:12;;;;;;;12.25;9.65;;;;;;;32.16;37.86;99558.88;5027514;28;20411;-33
2022/07/27 08:35:37;;;;;;;11.50;9.65;;;;;;;32.27;37.06;99550.72;5026005;28;20025;-30
2022/07/27 08:38:06;;;;;;;14.38;10.00;;;;;;;32.48;38.58;99561.16;5027294;28;20033;-28
2022/07/27 08:40:32;;;;;;;13.82;9.73;;;;;;;32.68;35.75;99547.97;5025681;28;20485;-33
2022/07/27 08:43:00;;;;;;;11.85;9.77;;;;;;;32.70;36.36;99556.69;5026050;28;20029;-27
2022/07/27 08:45:25;;;;;;;;;;;;;;;33.05;36.88;99545.13;5025804;28;20497;-28
2022/07/27 08:47:51;;;;;;;14.27;9.85;;;;;;;33.17;37.05;99544.03;5027203;28;19924;-29
2022/07/27 08:50:29;;;;;;;11.88;10.40;;;;;;;33.16;36.29;99548.78;5025822;28;20812;-28
2022/07/27 08:52:56;;;;;;;11.57;10.35;;;;;;;33.02;35.88;99549.44;5027403;28;20476;-28
2022/07/27 08:55:22;;;;;;;14.80;11.52;;;;;;;32.67;35.48;99547.16;5025428;28;20114;-31
2022/07/27 08:57:48;;;;;;;12.43;11.23;;;;;;;33.26;36.07;99540.94;5025594;28;20051;-29
2022/07/27 09:00:15;;;;;;;14.30;10.70;;;;;;;33.22;34.37;99543.66;5025707;28;20022;-28
2022/07/27 09:02:41;;;;;;;12.27;10.63;;;;;;;33.10;34.52;99535.69;5025786;28;20030;-30
2022/07/27 09:05:08;;;;;;;15.52;11.48;;;;;;;33.02;35.06;99526.56;5025652;28;20414;-32
2022/07/27 09:07:34;;;;;;;14.20;11.27;;;;;;;32.95;34.14;99534.78;5025407;28;20087;-28
2022/07/27 09:10:00;;;;;;;14.10;11.18;;;;;;;32.96;34.06;99530.84;5027089;28;20030;-27
2022/07/27 09:12:27;;;;;;;13.48;11.52;;;;;;;33.05;33.77;99531.31;5025285;28;20493;-32
2022/07/27 09:15:11;;;;;;;13.00;11.65;;;;;;;33.18;33.09;99521.56;5027241;28;20033;-28
2022/07/27 09:17:40;;;;;;;14.60;11.85;;;;;;;33.20;35.16;99533.03;5026502;28;20133;-28
2022/07/27 09:20:12;;;;;;;13.05;11.60;;;;;;;33.56;33.93;99522.16;5025255;28;20059;-28
2022/07/27 09:22:38;;;;;;;14.65;11.10;;;;;;;33.60;34.42;99525.72;5026744;28;20107;-28
2022/07/27 09:25:04;;;;;;;12.70;11.23;;;;;;;33.49;34.51;99522.13;5028568;28;20030;-32
2022/07/27 09:27:30;;;;;;;12.85;11.45;;;;;;;33.58;35.04;99522.56;5029192;28;20032;-30
2022/07/27 09:30:08;;;;;;;13.25;11.77;;;;;;;33.94;34.88;99522.72;5029134;28;20033;-29
2022/07/27 09:32:34;;;;;;;14.43;11.18;;;;;;;34.17;32.97;99494.75;5030628;28;20029;-30
2022/07/27 09:35:20;;;;;;;14.00;11.70;;;;;;;34.54;32.41;99520.50;5029319;28;20037;-29
2022/07/27 09:37:46;;;;;;;16.20;11.30;;;;;;;34.71;33.14;99514.16;5029200;28;20056;-29
2022/07/27 09:40:17;;;;;;;12.55;10.80;;;;;;;34.50;31.65;99519.69;5030703;28;20775;-28
2022/07/27 09:42:43;;;;;;;12.40;10.95;;;;;;;34.45;32.46;99514.53;5029263;28;20037;-30
2022/07/27 09:45:28;;;;;;;12.90;11.23;;;;;;;34.98;31.94;99514.56;5029305;28;20037;-29
2022/07/27 09:48:11;;;;;;;12.02;10.75;;;;;;;35.05;30.82;99494.34;5028892;28;20291;-28
2022/07/27 09:50:40;;;;;;;12.77;11.35;;;;;;;34.85;32.15;99507.06;5029305;28;20091;-36
2022/07/27 09:53:17;;;;;;;14.27;11.32;;;;;;;35.00;31.10;99505.84;5029046;28;20421;-28
2022/07/27 09:55:44;;;;;;;12.13;10.85;;;;;;;35.03;30.58;99513.38;5028924;28;20045;-31
2022/07/27 09:58:10;;;;;;;14.27;11.02;;;;;;;35.26;30.69;99499.06;5030058;28;20044;-28
2022/07/27 10:00:35;;;;;;;12.43;10.13;;;;;;;34.99;29.87;99504.25;5029927;28;20033;-29
2022/07/27 10:03:01;;;;;;;13.70;10.65;;;;;;;34.91;30.30;99505.47;5030217;28;20029;-28
2022/07/27 10:05:27;;;;;;;11.85;10.57;;;;;;;35.35;29.64;99510.56;5027051;28;20460;-28
2022/07/27 10:07:54;;;;;;;11.82;10.45;;;;;;;35.27;29.83;99489.59;5026821;28;20036;-29
2022/07/27 10:10:21;;;;;;;13.37;10.60;;;;;;;35.42;28.70;99506.97;5028678;28;20029;-31
2022/07/27 10:12:47;;;;;;;12.02;9.52;;;;;;;35.31;28.86;99500.63;5026359;28;20283;-29
2022/07/27 10:15:13;;;;;;;12.93;10.73;;;;;;;35.33;29.83;99507.38;5027416;28;20029;-30
2022/07/27 10:17:42;;;;;;;12.77;10.60;;;;;;;35.58;31.02;99493.44;5027069;28;20100;-28
2022/07/27 10:20:10;;;;;;;10.35;9.35;;;;;;;36.11;27.46;99513.00;5025939;28;20029;-30
2022/07/27 10:22:53;;;;;;;11.43;9.55;;;;;;;36.67;26.65;99499.94;5025752;28;20033;-28
2022/07/27 10:25:20;;;;;;;10.90;8.98;;;;;;;36.51;25.32;99491.31;5026738;28;20028;-33
2022/07/27 10:27:48;;;;;;;10.88;9.77;;;;;;;36.50;25.79;99498.09;5027163;28;20446;-33
2022/07/27 10:30:16;;;;;;;11.20;9.90;;;;;;;36.84;27.00;99486.28;5027479;28;20026;-30
2022/07/27 10:32:43;;;;;;;13.38;10.40;;;;;;;36.47;26.77;99487.78;5024937;28;20064;-35
2022/07/27 10:35:33;;;;;;;10.55;9.43;;;;;;;36.57;26.15;99489.69;5025387;28;20025;-30
2022/07/27 10:38:09;;;;;;;12.07;9.98;;;;;;;36.63;25.23;99492.84;5024960;28;20037;-29
2022/07/27 10:40:35;;;;;;;10.30;9.20;;;;;;;36.75;25.59;99489.56;5025853;28;20037;-29
2022/07/27 10:43:21;;;;;;;12.43;9.40;;;;;;;36.95;26.18;99481.44;5026346;28;20041;-35
2022/07/27 10:45:50;;;;;;;11.30;10.10;;;;;;;37.19;26.08;99476.84;5028692;28;20033;-35
2022/07/27 10:48:36;;;;;;;10.35;9.35;;;;;;;37.69;25.41;99472.66;5030728;28;20674;-29
2022/07/27 10:51:06;;;;;;;10.67;9.40;;;;;;;37.81;24.75;99469.31;5025698;28;20045;-29
2022/07/27 10:53:40;;;;;;;11.55;10.25;;;;;;;38.12;24.30;99467.28;5026291;28;20532;-29
2022/07/27 10:56:07;;;;;;;12.07;9.93;;;;;;;38.29;24.42;99459.06;5026585;28;20026;-31
2022/07/27 10:58:32;;;;;;;;;;;;;;;37.94;24.52;99466.72;5026695;28;20025;-29
2022/07/27 11:01:02;;;;;;;10.00;9.00;;;;;;;37.92;24.38;99458.78;5026973;28;19923;-32
2022/07/27 11:03:32;;;;;;;11.35;9.07;;;;;;;38.04;23.91;99462.22;5027102;28;20041;-31
2022/07/27 11:06:00;;;;;;;11.23;10.13;;;;;;;38.15;23.37;99460.88;5025720;28;20021;-29
2022/07/27 11:08:32;;;;;;;12.05;9.50;;;;;;;38.25;23.57;99445.22;5027879;28;20041;-29
2022/07/27 11:10:58;;;;;;;10.27;9.18;;;;;;;38.49;26.08;99461.91;5025919;28;20021;-28
2022/07/27 11:13:26;;;;;;;10.48;9.38;;;;;;;39.05;24.39;99458.56;5025639;28;20025;-29
2022/07/27 11:15:56;;;;;;;10.82;9.27;;;;;;;38.84;23.33;99460.53;4985315;28;1212219;-36
2022/07/27 11:18:29;;;;;;;10.68;9.57;;;;;;;38.99;24.05;99458.28;5027593;28;20033;-29
2022/07/27 11:21:37;;;;;;;10.13;9.13;;;;;;;39.37;22.67;99460.72;5027415;28;20124;-30
2022/07/27 11:24:15;;;;;;;9.90;8.85;;;;;;;39.27;23.89;99444.97;5008894;28;20037;-29
2022/07/27 11:26:51;;;;;;;10.98;8.98;;;;;;;39.19;25.22;99444.34;5025672;28;20175;-36
2022/07/27 11:29:19;;;;;;;9.63;8.73;;;;;;;39.60;25.17;99445.13;5027635;28;20052;-30
2022/07/27 11:31:47;;;;;;;16.58;9.60;;;;;;;39.85;22.66;99436.19;5028309;28;20029;-31